Time;durP1;ratioP1;P1;durP2;ratioP2;P2;SDS_P1;SDS_P2;PMS_P1;PMS_P2;Temp;Humidity;BMP_temperature;BMP_pressure;BME280_temperature;BME280_humidity;BME280_pressure;Samples;Min_cycle;Max_cycle;Signal;HPM_P1;HPM_P2
2022/07/02 00:00:54;;;;;;;1.73;1.60;;;;;;;14.17;100.00;100903.75;4965690;28;20185;-76
2022/07/02 00:03:23;;;;;;;1.90;1.80;;;;;;;14.13;100.00;100905.53;4962270;28;20204;-76
2022/07/02 00:05:55;;;;;;;2.20;1.80;;;;;;;14.10;100.00;100899.53;4959993;28;20237;-76
2022/07/02 00:08:23;;;;;;;1.67;1.57;;;;;;;14.06;100.00;100898.72;4963789;28;20206;-77
2022/07/02 00:10:51;;;;;;;1.43;1.33;;;;;;;14.03;100.00;100896.16;4979779;28;20182;-76
2022/07/02 00:13:17;;;;;;;2.70;1.60;;;;;;;13.99;100.00;100897.06;4953727;28;20307;-77
2022/07/02 00:15:44;;;;;;;1.43;1.33;;;;;;;13.97;100.00;100896.22;4965086;28;21147;-76
2022/07/02 00:18:10;;;;;;;1.60;1.50;;;;;;;13.92;100.00;100892.81;4967170;28;20502;-76
2022/07/02 00:20:37;;;;;;;1.73;1.60;;;;;;;13.89;100.00;100893.72;4963357;28;20220;-76
2022/07/02 00:23:02;;;;;;;1.97;1.70;;;;;;;13.84;100.00;100895.53;4957406;28;20309;-76
2022/07/02 00:25:38;;;;;;;1.67;1.57;;;;;;;13.81;100.00;100895.56;4962907;28;20250;-76
2022/07/02 00:28:05;;;;;;;1.63;1.53;;;;;;;13.78;100.00;100895.59;4963080;28;20206;-77
2022/07/02 00:30:32;;;;;;;1.73;1.60;;;;;;;13.72;100.00;100880.94;4957668;28;20220;-76
2022/07/02 00:32:59;;;;;;;3.03;1.83;;;;;;;13.70;100.00;100888.72;4957172;28;20267;-76
2022/07/02 00:35:25;;;;;;;1.93;1.80;;;;;;;13.67;100.00;100888.78;4958567;28;20208;-76
2022/07/02 00:37:52;;;;;;;1.87;1.77;;;;;;;13.64;100.00;100894.03;4956912;28;20190;-76
2022/07/02 00:40:18;;;;;;;1.60;1.40;;;;;;;13.60;100.00;100888.88;4963151;28;20200;-76
2022/07/02 00:42:44;;;;;;;1.80;1.70;;;;;;;13.53;100.00;100891.56;4962731;28;20573;-76
2022/07/02 00:45:10;;;;;;;1.80;1.70;;;;;;;13.51;100.00;100898.50;4955295;28;20226;-76
2022/07/02 00:47:37;;;;;;;3.13;1.50;;;;;;;13.48;100.00;100895.09;4959626;28;20187;-77
2022/07/02 00:50:04;;;;;;;2.87;1.80;;;;;;;13.44;100.00;100889.06;4963839;28;20572;-76
2022/07/02 00:52:30;;;;;;;2.20;1.70;;;;;;;13.43;100.00;100894.25;4960565;28;20240;-76
2022/07/02 00:54:55;;;;;;;1.80;1.70;;;;;;;13.42;100.00;100901.22;4971664;28;20678;-75
2022/07/02 00:57:21;;;;;;;2.57;1.93;;;;;;;13.41;100.00;100895.13;4975492;28;20240;-77
2022/07/02 00:59:46;;;;;;;1.53;1.40;;;;;;;13.40;100.00;100900.38;4960129;28;20186;-76
2022/07/02 01:02:14;;;;;;;2.27;2.00;;;;;;;13.39;100.00;100898.59;4951819;28;20194;-76
2022/07/02 01:04:40;;;;;;;1.87;1.77;;;;;;;13.37;100.00;100895.16;4954509;28;20293;-77
2022/07/02 01:07:10;;;;;;;2.13;1.60;;;;;;;13.33;100.00;100889.16;4957396;28;20198;-76
2022/07/02 01:12:26;;;;;;;1.73;1.57;;;;;;;13.29;100.00;100890.03;4957585;28;20217;-75
2022/07/02 01:14:52;;;;;;;1.97;1.70;;;;;;;13.26;100.00;100884.88;4954130;28;20225;-75
2022/07/02 01:17:18;;;;;;;1.70;1.60;;;;;;;13.23;100.00;100887.53;4956324;28;20224;-76
2022/07/02 01:19:43;;;;;;;2.53;1.93;;;;;;;13.17;100.00;100888.44;4958769;28;20234;-76
2022/07/02 01:22:16;;;;;;;2.30;2.00;;;;;;;13.14;100.00;100892.81;4960661;28;20276;-76
2022/07/02 01:24:43;;;;;;;2.07;1.90;;;;;;;13.10;100.00;100886.78;4965591;28;20292;-76
2022/07/02 01:27:08;;;;;;;2.00;1.80;;;;;;;13.06;100.00;100893.75;4960826;28;20199;-75
2022/07/02 01:29:34;;;;;;;2.17;1.70;;;;;;;13.06;100.00;100882.47;4951828;28;20185;-76
2022/07/02 01:32:00;;;;;;;2.17;1.73;;;;;;;13.04;100.00;100887.69;4964728;28;20221;-76
2022/07/02 01:34:25;;;;;;;1.90;1.80;;;;;;;13.03;100.00;100891.19;4956873;28;20827;-76
2022/07/02 01:36:51;;;;;;;2.40;1.80;;;;;;;13.00;100.00;100886.00;4963173;28;20191;-77
2022/07/02 01:39:23;;;;;;;2.10;1.80;;;;;;;12.98;100.00;100887.75;4959551;28;20198;-76
2022/07/02 01:41:49;;;;;;;1.90;1.60;;;;;;;12.94;100.00;100880.84;4963915;28;20886;-75
2022/07/02 01:44:14;;;;;;;1.70;1.60;;;;;;;12.92;100.00;100883.47;4960212;28;20232;-76
2022/07/02 01:46:39;;;;;;;2.17;1.97;;;;;;;12.92;100.00;100887.81;4953264;28;20777;-76
2022/07/02 01:49:05;;;;;;;2.10;1.70;;;;;;;12.92;100.00;100891.28;4958763;28;20217;-75
2022/07/02 01:51:31;;;;;;;1.97;1.70;;;;;;;12.94;100.00;100896.44;4954741;28;22555;-75
2022/07/02 01:53:57;;;;;;;1.70;1.60;;;;;;;12.96;100.00;100892.97;4962266;28;20198;-76
2022/07/02 01:56:22;;;;;;;2.20;1.23;;;;;;;12.98;100.00;100892.94;4955665;28;20715;-76
2022/07/02 01:58:47;;;;;;;3.73;1.60;;;;;;;12.99;100.00;100894.66;4957146;28;20193;-76
2022/07/02 02:01:13;;;;;;;1.50;1.30;;;;;;;12.98;100.00;100887.75;4963517;28;20193;-76
2022/07/02 02:03:38;;;;;;;1.53;1.43;;;;;;;12.94;100.00;100886.94;4958737;28;20186;-76
2022/07/02 02:06:04;;;;;;;1.60;1.50;;;;;;;12.94;100.00;100880.84;4947162;28;20214;-76
2022/07/02 02:08:30;;;;;;;1.67;1.57;;;;;;;12.91;100.00;100880.91;4957796;28;20288;-76
2022/07/02 02:10:55;;;;;;;1.80;1.50;;;;;;;12.91;100.00;100879.16;4959143;28;20190;-76
2022/07/02 02:13:21;;;;;;;2.20;1.47;;;;;;;12.90;100.00;100876.59;4963308;28;20736;-77
2022/07/02 02:15:46;;;;;;;2.03;1.50;;;;;;;12.87;100.00;100882.66;4958389;28;20223;-77
2022/07/02 02:18:11;;;;;;;3.30;1.60;;;;;;;12.87;100.00;100885.25;4956561;28;21653;-75
2022/07/02 02:20:38;;;;;;;1.97;1.63;;;;;;;12.86;100.00;100878.31;4955657;28;20183;-76
2022/07/02 02:23:04;;;;;;;3.00;1.63;;;;;;;12.81;100.00;100878.38;4960146;28;20180;-76
2022/07/02 02:25:31;;;;;;;1.83;1.73;;;;;;;12.75;100.00;100873.25;4955492;28;20237;-76
2022/07/02 02:27:56;;;;;;;2.43;1.80;;;;;;;12.70;100.00;100876.75;4956618;28;20203;-75
2022/07/02 02:30:22;;;;;;;1.53;1.40;;;;;;;12.65;100.00;100876.78;4960278;28;20207;-75
2022/07/02 02:32:47;;;;;;;1.57;1.30;;;;;;;12.64;100.00;100877.66;4969791;28;20213;-76
2022/07/02 02:35:12;;;;;;;3.73;1.60;;;;;;;12.62;100.00;100879.41;4965691;28;20210;-76
2022/07/02 02:37:38;;;;;;;1.60;1.50;;;;;;;12.60;100.00;100879.41;4978658;28;20192;-75
2022/07/02 02:40:05;;;;;;;1.70;1.53;;;;;;;12.61;100.00;100873.34;4966259;28;20603;-76
2022/07/02 02:42:30;;;;;;;2.50;1.60;;;;;;;12.61;100.00;100878.53;4962394;28;20198;-76
2022/07/02 02:44:56;;;;;;;1.37;1.27;;;;;;;12.59;100.00;100880.28;4977051;28;20540;-74
2022/07/02 02:47:22;;;;;;;1.70;1.50;;;;;;;12.60;100.00;100889.78;4947887;28;20190;-76
2022/07/02 02:49:48;;;;;;;2.03;1.60;;;;;;;12.61;100.00;100880.28;4952720;28;20210;-76
2022/07/02 02:52:13;;;;;;;2.13;1.40;;;;;;;12.58;100.00;100888.94;4957629;28;20998;-76
2022/07/02 02:54:41;;;;;;;1.30;1.20;;;;;;;12.54;100.00;100891.59;4967161;28;20205;-75
2022/07/02 02:57:07;;;;;;;1.63;1.53;;;;;;;12.49;100.00;100889.88;4965992;28;20688;-76
2022/07/02 02:59:32;;;;;;;1.50;1.40;;;;;;;12.45;100.00;100888.19;4962979;28;20219;-76
2022/07/02 03:01:57;;;;;;;3.17;1.80;;;;;;;12.42;100.00;100896.00;4961225;28;20559;-76
2022/07/02 03:04:23;;;;;;;1.57;1.47;;;;;;;12.38;100.00;100896.03;4961028;28;20214;-76
2022/07/02 03:06:48;;;;;;;1.83;1.70;;;;;;;12.34;100.00;100892.56;4963349;28;20273;-77
2022/07/02 03:09:13;;;;;;;1.60;1.50;;;;;;;12.31;100.00;100898.66;4964198;28;20194;-77
2022/07/02 03:11:39;;;;;;;2.80;1.70;;;;;;;12.31;100.00;100900.41;4977505;28;20294;-76
2022/07/02 03:14:04;;;;;;;1.70;1.60;;;;;;;12.30;100.00;100899.53;4964281;28;20665;-77
2022/07/02 03:16:29;;;;;;;1.47;1.37;;;;;;;12.28;100.00;100901.25;4964654;28;20366;-77
2022/07/02 03:18:55;;;;;;;1.53;1.43;;;;;;;12.27;100.00;100896.94;4975240;28;20237;-76
2022/07/02 03:21:20;;;;;;;1.90;1.50;;;;;;;12.27;100.00;100898.69;4958936;28;20228;-76
2022/07/02 03:23:45;;;;;;;1.77;1.67;;;;;;;12.27;100.00;100899.53;4982034;28;20192;-76
2022/07/02 03:26:11;;;;;;;1.77;1.67;;;;;;;12.27;100.00;100893.50;4957277;28;20232;-76
2022/07/02 03:28:36;;;;;;;2.17;1.63;;;;;;;12.25;100.00;100895.25;4963970;28;20182;-76
2022/07/02 03:31:02;;;;;;;1.43;1.33;;;;;;;12.25;100.00;100900.44;4962257;28;20256;-76
2022/07/02 03:33:27;;;;;;;2.10;1.97;;;;;;;12.23;100.00;100908.25;4963657;28;20218;-77
2022/07/02 03:35:52;;;;;;;2.00;1.60;;;;;;;12.21;100.00;100907.38;4966659;28;20853;-76
2022/07/02 03:38:18;;;;;;;1.53;1.43;;;;;;;12.23;100.00;100902.16;4964806;28;20205;-75
2022/07/02 03:40:43;;;;;;;1.70;1.60;;;;;;;12.25;100.00;100909.06;4963322;28;20661;-76
2022/07/02 03:43:09;;;;;;;2.00;1.60;;;;;;;12.27;100.00;100915.09;4961775;28;20221;-76
2022/07/02 03:45:34;;;;;;;2.00;1.57;;;;;;;12.30;100.00;100917.69;4963447;28;20205;-76
2022/07/02 03:47:59;;;;;;;1.70;1.40;;;;;;;12.34;100.00;100921.13;4962224;28;20290;-76
2022/07/02 03:50:25;;;;;;;3.30;1.60;;;;;;;12.38;100.00;100917.66;4963840;28;20190;-76
2022/07/02 03:52:50;;;;;;;1.47;1.37;;;;;;;12.43;100.00;100923.69;4961551;28;20214;-76
2022/07/02 03:55:15;;;;;;;1.73;1.53;;;;;;;12.52;100.00;100919.28;4959657;28;20205;-76
2022/07/02 03:57:41;;;;;;;1.50;1.40;;;;;;;12.66;100.00;100922.63;4962865;28;20189;-76
2022/07/02 04:00:07;;;;;;;1.63;1.53;;;;;;;13.31;100.00;100921.25;4964235;28;20189;-76
2022/07/02 04:02:32;;;;;;;2.50;1.50;;;;;;;14.28;100.00;100930.50;4964462;28;20187;-76
2022/07/02 04:04:58;;;;;;;1.57;1.33;;;;;;;15.02;100.00;100912.88;4975707;28;20276;-76
2022/07/02 04:07:23;;;;;;;2.07;1.50;;;;;;;15.37;100.00;100911.38;4962377;28;20785;-76
2022/07/02 04:09:49;;;;;;;1.70;1.40;;;;;;;15.29;100.00;100918.47;4964971;28;20205;-76
2022/07/02 04:12:14;;;;;;;1.70;1.40;;;;;;;15.02;100.00;100918.09;4960087;28;20277;-77
2022/07/02 04:14:39;;;;;;;1.23;1.13;;;;;;;14.78;100.00;100916.75;4962324;28;20300;-77
2022/07/02 04:17:05;;;;;;;2.00;1.27;;;;;;;14.60;100.00;100917.88;4958016;28;20213;-76
2022/07/02 04:19:31;;;;;;;1.37;1.27;;;;;;;14.54;100.00;100913.63;4969405;28;20725;-77
2022/07/02 04:21:56;;;;;;;1.73;1.33;;;;;;;14.61;100.00;100922.22;4962686;28;20268;-76
2022/07/02 04:24:22;;;;;;;1.33;1.23;;;;;;;15.04;100.00;100918.06;4978528;28;20301;-76
2022/07/02 04:26:47;;;;;;;2.53;1.33;;;;;;;15.66;100.00;100911.69;4977394;28;20650;-76
2022/07/02 04:29:12;;;;;;;2.00;1.40;;;;;;;15.69;100.00;100915.13;4957714;28;20200;-77
2022/07/02 04:31:38;;;;;;;1.93;1.50;;;;;;;15.62;100.00;100910.91;4964879;28;20199;-76
2022/07/02 04:34:03;;;;;;;1.53;1.20;;;;;;;15.46;100.00;100910.34;4956660;28;20196;-76
2022/07/02 04:36:29;;;;;;;1.40;1.30;;;;;;;15.32;100.00;100905.38;4956212;28;20624;-76
2022/07/02 04:38:54;;;;;;;1.63;1.30;;;;;;;15.31;100.00;100908.03;4957785;28;20193;-76
2022/07/02 04:41:20;;;;;;;1.53;1.20;;;;;;;15.31;100.00;100908.88;4957509;28;20196;-77
2022/07/02 04:43:45;;;;;;;1.53;1.10;;;;;;;15.79;100.00;100901.88;4963352;28;20213;-76
2022/07/02 04:46:10;;;;;;;2.67;1.07;;;;;;;17.33;100.00;100905.22;4959426;28;20217;-76
2022/07/02 04:48:36;;;;;;;1.10;1.10;;;;;;;19.18;95.99;100905.69;4953919;28;20833;-77
2022/07/02 04:51:01;;;;;;;1.03;0.90;;;;;;;20.78;90.80;100891.78;4963806;28;20568;-76
2022/07/02 04:53:27;;;;;;;1.07;1.03;;;;;;;22.16;86.59;100904.06;4964193;28;20210;-76
2022/07/02 04:55:52;;;;;;;0.83;0.83;;;;;;;23.33;83.52;100891.28;4960394;28;20623;-76
2022/07/02 04:58:17;;;;;;;1.17;1.03;;;;;;;24.28;80.65;100887.00;4960648;28;20196;-76
2022/07/02 05:00:43;;;;;;;1.70;0.83;;;;;;;25.17;78.47;100893.31;4964467;28;20190;-76
2022/07/02 05:03:08;;;;;;;1.57;1.00;;;;;;;25.95;76.29;100889.38;4961524;28;20708;-76
2022/07/02 05:05:33;;;;;;;1.27;0.90;;;;;;;26.65;74.53;100892.84;4960323;28;20206;-76
2022/07/02 05:07:59;;;;;;;1.10;1.00;;;;;;;27.28;72.78;100900.97;4958312;28;20310;-76
2022/07/02 05:10:24;;;;;;;0.83;0.83;;;;;;;27.87;71.16;100888.88;4957519;28;20217;-77
2022/07/02 05:12:49;;;;;;;1.13;0.90;;;;;;;28.35;70.02;100881.88;4961343;28;20214;-76
2022/07/02 05:15:15;;;;;;;2.87;0.97;;;;;;;28.77;68.26;100884.94;4961509;28;20213;-76
2022/07/02 05:17:40;;;;;;;1.80;1.30;;;;;;;29.01;67.11;100889.31;4956127;28;20187;-76
2022/07/02 05:20:06;;;;;;;2.57;1.30;;;;;;;29.28;66.37;100885.47;4959088;28;20190;-76
2022/07/02 05:22:31;;;;;;;1.40;1.30;;;;;;;29.63;65.51;100882.69;4971436;28;20888;-76
2022/07/02 05:24:57;;;;;;;2.67;1.10;;;;;;;30.00;64.79;100881.56;4951417;28;20337;-74
2022/07/02 05:27:22;;;;;;;2.17;1.23;;;;;;;30.36;64.24;100887.47;4962967;28;20193;-76
2022/07/02 05:29:47;;;;;;;1.80;0.97;;;;;;;30.59;63.29;100887.41;4962181;28;20305;-77
2022/07/02 05:32:13;;;;;;;1.47;0.90;;;;;;;30.86;62.90;100891.34;4956363;28;20267;-76
2022/07/02 05:34:38;;;;;;;0.97;0.77;;;;;;;31.13;61.94;100890.84;4958014;28;20686;-76
2022/07/02 05:37:04;;;;;;;1.53;1.10;;;;;;;31.38;61.33;100886.00;4960783;28;20189;-75
2022/07/02 05:39:29;;;;;;;1.70;1.10;;;;;;;31.51;60.66;100879.56;4955682;28;20190;-77
2022/07/02 05:41:55;;;;;;;2.03;0.93;;;;;;;31.45;59.70;100881.81;4959165;28;20385;-76
2022/07/02 05:44:21;;;;;;;2.00;1.20;;;;;;;31.32;59.54;100868.66;4956380;28;20210;-76
2022/07/02 05:46:46;;;;;;;2.40;1.10;;;;;;;30.83;59.12;100881.78;4956484;28;20189;-77
2022/07/02 05:49:11;;;;;;;2.80;0.97;;;;;;;31.10;59.52;100883.03;4953744;28;21653;-76
2022/07/02 05:51:37;;;;;;;2.20;1.10;;;;;;;30.91;58.63;100889.16;4979579;28;20217;-76
2022/07/02 05:54:02;;;;;;;1.67;0.97;;;;;;;30.91;59.24;100893.63;4954503;28;20186;-76
2022/07/02 05:56:30;;;;;;;1.67;1.03;;;;;;;31.34;58.96;100881.91;4955963;28;20195;-76
2022/07/02 05:58:56;;;;;;;2.03;1.10;;;;;;;31.43;58.16;100893.59;4960965;28;20193;-77
2022/07/02 06:01:22;;;;;;;3.57;1.10;;;;;;;31.46;57.97;100896.03;4955508;28;20187;-75
2022/07/02 06:03:47;;;;;;;1.47;0.70;;;;;;;31.76;57.61;100891.63;4962478;28;20677;-76
2022/07/02 06:08:57;;;;;;;1.95;0.98;;;;;;;31.55;57.12;100883.66;4956788;28;20242;-76
2022/07/02 06:11:22;;;;;;;0.63;0.63;;;;;;;31.80;57.23;100885.03;4949858;28;20217;-76
2022/07/02 06:13:47;;;;;;;1.80;0.90;;;;;;;31.86;57.04;100888.97;4956370;28;20216;-76
2022/07/02 06:16:13;;;;;;;0.80;0.80;;;;;;;31.99;57.04;100886.03;4962278;28;20581;-76
2022/07/02 06:18:38;;;;;;;1.35;0.90;;;;;;;32.25;57.02;100890.84;4966963;28;20251;-76
2022/07/02 06:21:04;;;;;;;1.17;0.80;;;;;;;32.41;56.94;100885.78;4959632;28;20190;-75
2022/07/02 06:23:29;;;;;;;1.20;1.10;;;;;;;32.13;56.55;100884.75;4948900;28;20261;-76
2022/07/02 06:25:55;;;;;;;0.80;0.80;;;;;;;32.38;56.37;100888.75;4956367;28;20199;-76
2022/07/02 06:28:20;;;;;;;2.42;0.90;;;;;;;32.31;55.99;100888.47;4958883;28;20189;-76
2022/07/02 06:30:45;;;;;;;1.85;0.85;;;;;;;32.37;56.12;100877.16;4967579;28;20214;-76
2022/07/02 06:33:11;;;;;;;1.00;0.70;;;;;;;32.41;55.80;100884.91;4960940;28;20209;-75
2022/07/02 06:35:36;;;;;;;1.27;0.90;;;;;;;32.32;55.97;100881.25;4954197;28;20202;-76
2022/07/02 06:38:02;;;;;;;1.37;1.00;;;;;;;31.89;56.37;100888.69;4957496;28;20712;-77
2022/07/02 06:40:27;;;;;;;0.73;0.70;;;;;;;31.66;56.71;100880.03;4949432;28;20294;-75
2022/07/02 06:42:52;;;;;;;2.40;1.10;;;;;;;31.62;56.79;100885.66;4959513;28;20470;-76
2022/07/02 06:45:18;;;;;;;4.33;0.90;;;;;;;31.65;57.19;100875.66;4964747;28;20207;-77
2022/07/02 06:47:43;;;;;;;1.27;0.70;;;;;;;31.99;57.24;100880.69;4967219;28;20276;-76
2022/07/02 06:50:10;;;;;;;2.63;0.90;;;;;;;32.26;57.04;100874.63;4949660;28;20182;-76
2022/07/02 06:52:36;;;;;;;1.87;0.80;;;;;;;32.45;57.24;100868.41;4948192;28;20198;-76
2022/07/02 06:55:02;;;;;;;2.27;0.87;;;;;;;32.57;57.10;100871.78;4960249;28;20206;-76
2022/07/02 06:57:27;;;;;;;1.08;0.80;;;;;;;32.56;57.30;100864.75;4948931;28;20201;-76
2022/07/02 06:59:53;;;;;;;1.27;0.90;;;;;;;32.58;56.92;100869.97;4955096;28;20186;-76
2022/07/02 07:02:18;;;;;;;0.85;0.70;;;;;;;32.33;57.29;100864.19;4966203;28;20205;-76
2022/07/02 07:04:44;;;;;;;2.40;0.77;;;;;;;32.01;58.56;100862.63;4967672;28;20239;-76
2022/07/02 07:07:10;;;;;;;1.52;1.00;;;;;;;31.65;58.38;100879.16;4965973;28;20197;-75
2022/07/02 07:09:36;;;;;;;1.43;0.83;;;;;;;31.50;58.56;100870.69;4967211;28;21011;-76
2022/07/02 07:12:06;;;;;;;2.22;1.00;;;;;;;31.64;58.52;100872.13;4968703;28;20229;-78
2022/07/02 07:14:35;;;;;;;1.93;0.80;;;;;;;31.34;58.83;100868.53;4960769;28;20209;-76
2022/07/02 07:17:01;;;;;;;0.90;0.70;;;;;;;31.11;59.78;100870.50;4961201;28;20182;-76
2022/07/02 07:19:27;;;;;;;1.33;0.90;;;;;;;31.14;59.87;100870.28;4964877;28;20201;-76
2022/07/02 07:21:52;;;;;;;1.20;0.73;;;;;;;31.11;60.02;100862.50;4963888;28;20205;-76
2022/07/02 07:24:18;;;;;;;1.10;0.70;;;;;;;31.27;60.20;100870.06;4954414;28;20216;-77
2022/07/02 07:26:43;;;;;;;2.10;0.80;;;;;;;31.42;59.91;100859.81;4965420;28;21016;-76
2022/07/02 07:29:09;;;;;;;0.63;0.50;;;;;;;31.42;60.40;100855.34;4958823;28;20256;-75
2022/07/02 07:31:35;;;;;;;1.00;0.90;;;;;;;31.27;60.92;100852.19;4968285;28;20194;-76
2022/07/02 07:34:01;;;;;;;3.90;1.00;;;;;;;31.22;61.00;100850.91;4972679;28;20762;-76
2022/07/02 07:36:27;;;;;;;0.77;0.73;;;;;;;31.25;61.05;100843.44;4956222;28;20197;-75
2022/07/02 07:38:53;;;;;;;1.23;0.90;;;;;;;31.28;61.35;100837.00;4963373;28;20226;-77
2022/07/02 07:41:21;;;;;;;1.40;0.63;;;;;;;31.11;61.35;100839.28;4959955;28;20237;-79
2022/07/02 07:43:47;;;;;;;1.13;0.70;;;;;;;31.10;61.98;100839.41;4957140;28;20182;-75
2022/07/02 07:46:12;;;;;;;1.17;0.80;;;;;;;31.18;61.95;100836.97;4961373;28;20206;-75
2022/07/02 07:48:37;;;;;;;2.50;1.00;;;;;;;30.86;62.03;100843.25;4954313;28;20562;-75
2022/07/02 07:51:05;;;;;;;1.60;0.60;;;;;;;30.62;62.17;100841.72;4953839;28;20183;-76
2022/07/02 07:53:31;;;;;;;1.70;0.77;;;;;;;30.57;62.67;100835.94;4953546;28;20652;-75
2022/07/02 07:55:57;;;;;;;2.00;0.93;;;;;;;30.45;63.45;100827.09;4959870;28;20201;-76
2022/07/02 07:58:22;;;;;;;0.77;0.63;;;;;;;30.36;63.28;100823.38;4960039;28;20230;-75
2022/07/02 08:00:48;;;;;;;0.80;0.60;;;;;;;29.97;62.60;100820.44;4956024;28;20572;-75
2022/07/02 08:03:14;;;;;;;0.70;0.70;;;;;;;29.78;63.00;100815.75;4968685;28;20571;-75
2022/07/02 08:05:40;;;;;;;0.73;0.73;;;;;;;29.63;62.80;100808.03;4961644;28;20745;-75
2022/07/02 08:08:07;;;;;;;0.60;0.60;;;;;;;29.37;62.90;100803.94;4975115;28;20197;-75
2022/07/02 08:10:33;;;;;;;0.90;0.60;;;;;;;28.88;60.58;100799.72;4958814;28;20696;-75
2022/07/02 08:12:59;;;;;;;0.97;0.60;;;;;;;29.09;61.23;100803.47;4960413;28;20214;-75
2022/07/02 08:15:24;;;;;;;3.80;0.70;;;;;;;29.01;60.42;100806.72;4957046;28;20754;-75
2022/07/02 08:17:50;;;;;;;0.63;0.50;;;;;;;28.73;59.99;100801.78;4961533;28;20198;-75
2022/07/02 08:20:16;;;;;;;0.97;0.57;;;;;;;28.21;59.91;100798.59;4972559;28;20217;-75
2022/07/02 08:22:43;;;;;;;1.27;0.60;;;;;;;27.72;60.50;100805.72;4973807;28;20578;-75
2022/07/02 08:25:08;;;;;;;1.80;0.70;;;;;;;27.46;61.06;100791.66;4979130;28;20230;-76
2022/07/02 08:27:34;;;;;;;1.47;0.60;;;;;;;27.14;61.27;100792.16;4964106;28;20225;-75
2022/07/02 08:29:59;;;;;;;3.90;0.90;;;;;;;26.74;61.54;100790.47;4959050;28;20194;-75
2022/07/02 08:32:26;;;;;;;1.63;0.70;;;;;;;26.15;62.32;100802.41;4961881;28;20213;-74
2022/07/02 08:34:52;;;;;;;0.83;0.53;;;;;;;25.86;62.66;100794.53;4962039;28;20210;-75
2022/07/02 08:37:18;;;;;;;2.13;0.70;;;;;;;25.69;62.97;100796.50;4957330;28;20677;-76
2022/07/02 08:39:43;;;;;;;0.73;0.57;;;;;;;25.62;62.62;100791.69;4946961;28;20222;-76
2022/07/02 08:42:09;;;;;;;0.70;0.70;;;;;;;25.95;62.57;100798.38;4945797;28;20187;-75
2022/07/02 08:44:35;;;;;;;1.10;0.80;;;;;;;25.74;62.92;100790.03;4946430;28;20239;-75
2022/07/02 08:47:06;;;;;;;0.83;0.70;;;;;;;25.63;63.77;100782.78;4959689;28;20236;-75
2022/07/02 08:49:33;;;;;;;1.40;0.70;;;;;;;25.51;64.88;100781.78;4959018;28;20182;-77
2022/07/02 08:52:03;;;;;;;0.60;0.60;;;;;;;25.66;64.20;100772.84;4951780;28;20457;-75
2022/07/02 08:54:31;;;;;;;0.73;0.60;;;;;;;25.65;64.10;100765.84;4958387;28;20664;-76
2022/07/02 08:57:51;;;;;;;1.07;0.70;;;;;;;25.61;64.32;100768.78;4958272;28;20572;-76
2022/07/02 09:00:25;;;;;;;2.60;0.80;;;;;;;25.47;64.38;100756.41;4945716;28;20193;-75
2022/07/02 09:02:53;;;;;;;0.80;0.80;;;;;;;25.42;64.19;100748.78;4964173;28;20196;-76
2022/07/02 09:05:22;;;;;;;0.50;0.50;;;;;;;25.34;64.43;100746.56;4964230;28;20218;-76
2022/07/02 09:07:51;;;;;;;0.60;0.60;;;;;;;25.35;63.40;100748.28;4959888;28;20209;-74
2022/07/02 09:10:22;;;;;;;0.60;0.60;;;;;;;25.40;63.89;100746.19;4958822;28;20187;-76
2022/07/02 09:12:58;;;;;;;1.93;0.67;;;;;;;25.33;63.14;100744.03;4970877;28;20209;-76
2022/07/02 09:15:26;;;;;;;0.90;0.77;;;;;;;25.31;62.87;100741.47;4978428;28;20210;-75
2022/07/02 09:17:58;;;;;;;0.63;0.60;;;;;;;25.39;63.34;100751.56;4966285;28;20193;-76
2022/07/02 09:20:27;;;;;;;1.27;0.50;;;;;;;25.48;64.38;100748.38;4960363;28;20854;-75
2022/07/02 09:22:53;;;;;;;1.63;0.50;;;;;;;25.41;63.58;100752.34;4965729;28;20666;-76
2022/07/02 09:25:24;;;;;;;0.63;0.47;;;;;;;25.55;64.72;100743.53;4967351;28;20202;-75
2022/07/02 09:28:00;;;;;;;0.57;0.57;;;;;;;25.60;63.68;100751.19;4980961;28;20188;-76
2022/07/02 09:30:30;;;;;;;2.07;0.60;;;;;;;25.60;63.10;100749.38;4963226;28;20173;-75
2022/07/02 09:35:39;;;;;;;0.53;0.50;;;;;;;25.58;62.54;100747.78;4953608;28;20215;-75
2022/07/02 09:38:11;;;;;;;0.60;0.60;;;;;;;25.54;61.82;100737.38;4961615;28;20178;-75
2022/07/02 09:40:38;;;;;;;1.07;0.50;;;;;;;25.61;62.06;100748.41;4956568;28;20181;-75
2022/07/02 09:43:04;;;;;;;1.70;0.70;;;;;;;25.68;61.40;100743.56;4961275;28;20401;-75
2022/07/02 09:45:29;;;;;;;1.80;0.60;;;;;;;25.67;61.33;100747.16;4961873;28;20689;-74
2022/07/02 09:48:01;;;;;;;0.70;0.50;;;;;;;25.65;61.34;100731.38;4953599;28;20643;-75
2022/07/02 09:50:26;;;;;;;1.10;0.70;;;;;;;25.66;61.17;100746.31;4957147;28;20244;-75
2022/07/02 09:52:54;;;;;;;1.03;0.50;;;;;;;25.62;60.29;100749.28;4959482;28;20206;-76
2022/07/02 09:55:23;;;;;;;1.03;0.63;;;;;;;25.58;60.80;100740.66;4960355;28;20241;-76
2022/07/02 09:58:00;;;;;;;0.87;0.77;;;;;;;25.45;59.14;100732.69;4955569;28;20190;-78
2022/07/02 10:00:29;;;;;;;0.50;0.50;;;;;;;25.56;60.23;100738.13;4959055;28;20185;-74
2022/07/02 10:02:55;;;;;;;0.60;0.60;;;;;;;25.66;60.73;100738.38;4961645;28;20186;-75
2022/07/02 10:05:29;;;;;;;1.17;0.70;;;;;;;25.71;61.22;100743.38;4957837;28;20221;-76
2022/07/02 10:07:57;;;;;;;0.80;0.63;;;;;;;25.64;59.88;100745.56;4960679;28;20187;-77
2022/07/02 10:10:27;;;;;;;1.90;0.70;;;;;;;25.65;60.36;100749.06;4951654;28;20706;-75
2022/07/02 10:12:55;;;;;;;0.83;0.60;;;;;;;25.59;59.90;100739.72;4960700;28;20307;-76
2022/07/02 10:15:23;;;;;;;1.00;0.57;;;;;;;25.63;61.01;100721.84;4964972;28;20218;-75
2022/07/02 10:17:55;;;;;;;1.67;0.70;;;;;;;25.66;60.86;100734.84;4957998;28;20195;-75
2022/07/02 10:20:23;;;;;;;1.03;0.70;;;;;;;25.56;60.44;100727.53;4959716;28;20182;-74
2022/07/02 10:22:48;;;;;;;0.90;0.60;;;;;;;25.62;60.02;100726.28;4959110;28;20602;-73
2022/07/02 10:25:16;;;;;;;0.63;0.50;;;;;;;25.63;60.59;100732.44;4961624;28;20203;-76
2022/07/02 10:27:42;;;;;;;0.90;0.60;;;;;;;25.67;60.82;100724.19;4957441;28;20200;-75
2022/07/02 10:30:08;;;;;;;0.57;0.57;;;;;;;25.78;61.25;100725.25;4956612;28;20223;-75
2022/07/02 10:32:46;;;;;;;0.90;0.60;;;;;;;25.83;60.85;100731.94;4957820;28;20242;-75
2022/07/02 10:35:15;;;;;;;0.67;0.50;;;;;;;25.80;58.64;100718.88;4958907;28;20201;-75
2022/07/02 10:37:42;;;;;;;0.40;0.40;;;;;;;25.96;59.67;100712.56;4954012;28;20194;-76
2022/07/02 10:40:09;;;;;;;0.70;0.53;;;;;;;25.97;59.44;100707.19;4960203;28;20191;-75
2022/07/02 10:42:41;;;;;;;0.67;0.60;;;;;;;26.02;59.20;100714.81;4960126;28;20324;-74
2022/07/02 10:45:14;;;;;;;2.47;0.70;;;;;;;26.03;58.70;100716.50;4979324;28;20578;-74
2022/07/02 10:48:04;;;;;;;0.70;0.60;;;;;;;26.16;59.81;100706.81;4950522;28;20206;-75
2022/07/02 10:50:35;;;;;;;0.60;0.60;;;;;;;26.30;58.95;100707.66;4961209;28;20211;-76
2022/07/02 10:53:20;;;;;;;1.37;0.70;;;;;;;26.15;57.57;100706.91;4964791;28;20221;-74
2022/07/02 10:55:55;;;;;;;0.70;0.60;;;;;;;25.86;58.07;100691.97;4954030;28;20299;-74
2022/07/02 10:58:32;;;;;;;1.33;0.57;;;;;;;25.94;59.09;100691.47;4961711;28;20248;-75
2022/07/02 11:01:14;;;;;;;22.93;1.93;;;;;;;25.97;58.26;100683.31;4957551;28;20806;-75
2022/07/02 11:03:55;;;;;;;1.53;0.70;;;;;;;26.15;57.88;100678.56;4961746;28;20554;-75
2022/07/02 11:06:23;;;;;;;0.60;0.60;;;;;;;26.30;57.81;100689.94;4967937;28;20220;-75
2022/07/02 11:09:05;;;;;;;0.40;0.40;;;;;;;26.47;57.08;100682.63;4963565;28;20598;-75
2022/07/02 11:11:36;;;;;;;1.13;0.40;;;;;;;26.60;58.16;100682.59;4957965;28;20186;-75
2022/07/02 11:14:04;;;;;;;1.00;0.50;;;;;;;26.69;57.80;100679.31;4962146;28;20213;-75
2022/07/02 11:16:37;;;;;;;1.23;0.50;;;;;;;26.81;57.55;100677.59;4955899;28;20194;-74
2022/07/02 11:19:03;;;;;;;0.70;0.50;;;;;;;26.83;57.12;100675.69;4960126;28;20281;-75
2022/07/02 11:21:29;;;;;;;0.57;0.50;;;;;;;26.85;56.88;100681.72;4966178;28;20367;-74
2022/07/02 11:23:55;;;;;;;1.60;0.57;;;;;;;26.77;55.58;100670.78;4966564;28;20648;-74
2022/07/02 11:26:24;;;;;;;0.43;0.43;;;;;;;26.64;55.61;100668.16;4961946;28;20210;-75
2022/07/02 11:28:50;;;;;;;0.60;0.60;;;;;;;26.64;55.68;100662.84;4966652;28;20702;-74